PAGL

Details ICAO PAGL (GLV)
Name GOLOVIN
Region USA (Alaska)
Timezone America/Nome (UTC-9.0)
Plans Departing 0
Arriving 1
Stats Elevation 59 ft / 18 m (AMSL)
Location 64.547157° -163.022789°
Runways 2
Magnetic Variation 11.192° E
Sunrise 2017-12-13 20:46:36 UTC / 2017-12-13 11:46:36 Local
Sunset 2017-12-14 00:49:14 UTC / 2017-12-13 15:49:14 Local
Advertisement - Login to hide

Runways

ID Width Length Bearing (true) Bearing (mag) Surface Threshold Offset Overrun Length
01 43 ft / 13 m 1,484 ft / 452 m 35.03° 23.84° Dirt 0 ft / 0 m 0 ft / 0 m
02 75 ft / 23 m 4,004 ft / 1,220 m 35.94° 24.75° Gravel 0 ft / 0 m 292 ft / 89 m
19 43 ft / 13 m 1,484 ft / 452 m 215.03° 203.84° Dirt 0 ft / 0 m 0 ft / 0 m
20 75 ft / 23 m 4,004 ft / 1,220 m 215.96° 204.77° Gravel 0 ft / 0 m 292 ft / 89 m

Map

Weather


0- 5 10 15 20 25 30 35+ Temperature / ° C

Clouds and Precipitation
Forecast for 2017-12-14 06:00 UTC. Updated an hour ago

Ground ~20,000 ft ~40,000 ft Winds

METAR

PAGL 140402Z AUTO 34003KT 1 3/4SM BR BKN002 OVC018 01/01 A2938 RMK AO2 FZRANO

TAF

Not found

Frequencies

Recorded 135.75 MHz AWOS-3
Approach 133.30 MHz Anchorage App Dep
Unicom 122.90 MHz CTAF
Warning: Do not use this data for real-world aviation or navigation. No guarantee of current accuracy is given.